sensor_id;sensor_type;location;lat;lon;timestamp;P1;durP1;ratioP1;P2;durP2;ratioP2
63110;SDS011;49201;53.426;10.300;2023-02-15T00:01:29;120.30;;;52.63;;
63110;SDS011;49201;53.426;10.300;2023-02-15T00:03:55;112.37;;;50.13;;
63110;SDS011;49201;53.426;10.300;2023-02-15T00:06:20;122.23;;;50.30;;
63110;SDS011;49201;53.426;10.300;2023-02-15T00:08:46;113.47;;;50.40;;
63110;SDS011;49201;53.426;10.300;2023-02-15T00:11:13;119.33;;;49.00;;
63110;SDS011;49201;53.426;10.300;2023-02-15T00:13:41;135.27;;;52.47;;
63110;SDS011;49201;53.426;10.300;2023-02-15T00:16:08;120.07;;;50.27;;
63110;SDS011;49201;53.426;10.300;2023-02-15T00:18:35;166.20;;;52.20;;
63110;SDS011;49201;53.426;10.300;2023-02-15T00:21:05;121.63;;;49.80;;
63110;SDS011;49201;53.426;10.300;2023-02-15T00:23:33;163.37;;;51.63;;
63110;SDS011;49201;53.426;10.300;2023-02-15T00:26:03;153.93;;;51.90;;
63110;SDS011;49201;53.426;10.300;2023-02-15T00:28:40;126.73;;;49.43;;
63110;SDS011;49201;53.426;10.300;2023-02-15T00:31:06;131.10;;;49.63;;
63110;SDS011;49201;53.426;10.300;2023-02-15T00:33:34;119.87;;;48.87;;
63110;SDS011;49201;53.426;10.300;2023-02-15T00:36:01;134.63;;;49.43;;
63110;SDS011;49201;53.426;10.300;2023-02-15T00:38:27;131.30;;;50.43;;
63110;SDS011;49201;53.426;10.300;2023-02-15T00:40:54;114.77;;;49.03;;
63110;SDS011;49201;53.426;10.300;2023-02-15T00:43:21;134.87;;;51.03;;
63110;SDS011;49201;53.426;10.300;2023-02-15T00:45:47;184.93;;;52.83;;
63110;SDS011;49201;53.426;10.300;2023-02-15T00:48:12;211.23;;;52.60;;
63110;SDS011;49201;53.426;10.300;2023-02-15T00:50:38;139.90;;;49.87;;
63110;SDS011;49201;53.426;10.300;2023-02-15T00:53:04;159.30;;;50.37;;
63110;SDS011;49201;53.426;10.300;2023-02-15T00:55:29;145.47;;;49.10;;
63110;SDS011;49201;53.426;10.300;2023-02-15T00:57:55;137.47;;;50.90;;
63110;SDS011;49201;53.426;10.300;2023-02-15T01:00:20;144.97;;;51.13;;
63110;SDS011;49201;53.426;10.300;2023-02-15T01:02:46;126.20;;;51.67;;
63110;SDS011;49201;53.426;10.300;2023-02-15T01:05:12;147.77;;;53.50;;
63110;SDS011;49201;53.426;10.300;2023-02-15T01:07:38;167.63;;;53.70;;
63110;SDS011;49201;53.426;10.300;2023-02-15T01:10:05;193.43;;;54.80;;
63110;SDS011;49201;53.426;10.300;2023-02-15T01:12:32;118.60;;;50.67;;
63110;SDS011;49201;53.426;10.300;2023-02-15T01:14:57;118.60;;;50.40;;
63110;SDS011;49201;53.426;10.300;2023-02-15T01:17:24;114.80;;;49.07;;
63110;SDS011;49201;53.426;10.300;2023-02-15T01:19:49;137.50;;;53.17;;
63110;SDS011;49201;53.426;10.300;2023-02-15T01:22:18;141.93;;;49.50;;
63110;SDS011;49201;53.426;10.300;2023-02-15T01:24:44;124.70;;;48.67;;
63110;SDS011;49201;53.426;10.300;2023-02-15T01:27:10;106.23;;;45.97;;
63110;SDS011;49201;53.426;10.300;2023-02-15T01:29:35;124.50;;;49.13;;
63110;SDS011;49201;53.426;10.300;2023-02-15T01:32:01;157.73;;;50.83;;
63110;SDS011;49201;53.426;10.300;2023-02-15T01:34:26;278.77;;;52.37;;
63110;SDS011;49201;53.426;10.300;2023-02-15T01:36:56;194.27;;;49.53;;
63110;SDS011;49201;53.426;10.300;2023-02-15T01:39:21;133.70;;;52.57;;
63110;SDS011;49201;53.426;10.300;2023-02-15T01:41:46;185.10;;;51.70;;
63110;SDS011;49201;53.426;10.300;2023-02-15T01:50:12;176.53;;;49.73;;
63110;SDS011;49201;53.426;10.300;2023-02-15T01:53:03;125.43;;;48.03;;
63110;SDS011;49201;53.426;10.300;2023-02-15T01:55:36;171.07;;;52.03;;
63110;SDS011;49201;53.426;10.300;2023-02-15T01:58:07;194.37;;;51.63;;
63110;SDS011;49201;53.426;10.300;2023-02-15T02:00:33;116.10;;;49.27;;
63110;SDS011;49201;53.426;10.300;2023-02-15T02:03:00;246.53;;;53.60;;
63110;SDS011;49201;53.426;10.300;2023-02-15T02:05:28;212.33;;;53.33;;
63110;SDS011;49201;53.426;10.300;2023-02-15T02:07:55;151.37;;;50.10;;
63110;SDS011;49201;53.426;10.300;2023-02-15T02:10:23;133.03;;;51.13;;
63110;SDS011;49201;53.426;10.300;2023-02-15T02:12:51;157.67;;;49.50;;
63110;SDS011;49201;53.426;10.300;2023-02-15T02:15:20;161.97;;;50.83;;
63110;SDS011;49201;53.426;10.300;2023-02-15T02:20:59;114.00;;;47.43;;
63110;SDS011;49201;53.426;10.300;2023-02-15T02:23:58;115.80;;;43.03;;
63110;SDS011;49201;53.426;10.300;2023-02-15T02:30:06;116.70;;;42.97;;
63110;SDS011;49201;53.426;10.300;2023-02-15T02:35:36;99.60;;;43.53;;
63110;SDS011;49201;53.426;10.300;2023-02-15T02:38:17;95.07;;;40.80;;
63110;SDS011;49201;53.426;10.300;2023-02-15T02:43:54;108.00;;;42.40;;
63110;SDS011;49201;53.426;10.300;2023-02-15T02:46:39;108.90;;;41.67;;
63110;SDS011;49201;53.426;10.300;2023-02-15T02:49:15;126.43;;;41.97;;
63110;SDS011;49201;53.426;10.300;2023-02-15T02:51:41;114.43;;;40.73;;
63110;SDS011;49201;53.426;10.300;2023-02-15T02:54:08;101.30;;;40.90;;
63110;SDS011;49201;53.426;10.300;2023-02-15T02:56:37;127.50;;;41.77;;
63110;SDS011;49201;53.426;10.300;2023-02-15T02:59:12;114.40;;;41.30;;
63110;SDS011;49201;53.426;10.300;2023-02-15T03:01:50;97.00;;;40.17;;
63110;SDS011;49201;53.426;10.300;2023-02-15T03:04:22;128.00;;;41.53;;
63110;SDS011;49201;53.426;10.300;2023-02-15T03:06:54;179.90;;;41.63;;
63110;SDS011;49201;53.426;10.300;2023-02-15T03:09:34;152.13;;;43.40;;
63110;SDS011;49201;53.426;10.300;2023-02-15T03:12:13;123.60;;;42.17;;
63110;SDS011;49201;53.426;10.300;2023-02-15T03:14:44;101.80;;;42.33;;
63110;SDS011;49201;53.426;10.300;2023-02-15T03:17:15;127.90;;;42.57;;
63110;SDS011;49201;53.426;10.300;2023-02-15T03:19:45;141.57;;;42.43;;
63110;SDS011;49201;53.426;10.300;2023-02-15T03:27:34;136.00;;;42.97;;
63110;SDS011;49201;53.426;10.300;2023-02-15T03:30:05;147.23;;;41.40;;
63110;SDS011;49201;53.426;10.300;2023-02-15T03:32:32;160.83;;;42.83;;
63110;SDS011;49201;53.426;10.300;2023-02-15T03:35:02;117.97;;;42.23;;
63110;SDS011;49201;53.426;10.300;2023-02-15T03:43:45;126.30;;;41.93;;
63110;SDS011;49201;53.426;10.300;2023-02-15T03:45:56;148.60;;;41.97;;
63110;SDS011;49201;53.426;10.300;2023-02-15T03:49:00;124.53;;;44.90;;
63110;SDS011;49201;53.426;10.300;2023-02-15T03:51:20;139.43;;;42.27;;
63110;SDS011;49201;53.426;10.300;2023-02-15T03:53:59;138.10;;;43.60;;
63110;SDS011;49201;53.426;10.300;2023-02-15T03:56:27;123.60;;;41.60;;
63110;SDS011;49201;53.426;10.300;2023-02-15T03:58:52;122.03;;;43.10;;
63110;SDS011;49201;53.426;10.300;2023-02-15T04:01:37;118.23;;;42.53;;
63110;SDS011;49201;53.426;10.300;2023-02-15T04:07:00;155.53;;;43.27;;
63110;SDS011;49201;53.426;10.300;2023-02-15T04:09:26;133.10;;;42.17;;
63110;SDS011;49201;53.426;10.300;2023-02-15T04:12:24;163.27;;;43.40;;
63110;SDS011;49201;53.426;10.300;2023-02-15T04:14:49;161.20;;;44.03;;
63110;SDS011;49201;53.426;10.300;2023-02-15T04:17:35;148.33;;;42.03;;
63110;SDS011;49201;53.426;10.300;2023-02-15T04:20:01;146.53;;;43.03;;
63110;SDS011;49201;53.426;10.300;2023-02-15T04:22:45;124.47;;;43.00;;
63110;SDS011;49201;53.426;10.300;2023-02-15T04:25:29;163.37;;;42.97;;
63110;SDS011;49201;53.426;10.300;2023-02-15T04:27:54;108.40;;;40.40;;
63110;SDS011;49201;53.426;10.300;2023-02-15T04:30:21;128.13;;;40.67;;
63110;SDS011;49201;53.426;10.300;2023-02-15T04:32:48;112.40;;;41.00;;
63110;SDS011;49201;53.426;10.300;2023-02-15T04:35:14;110.50;;;41.73;;
63110;SDS011;49201;53.426;10.300;2023-02-15T04:37:40;112.37;;;39.73;;
63110;SDS011;49201;53.426;10.300;2023-02-15T04:40:07;148.70;;;40.67;;
63110;SDS011;49201;53.426;10.300;2023-02-15T04:42:35;138.37;;;40.43;;
63110;SDS011;49201;53.426;10.300;2023-02-15T04:45:00;119.00;;;39.27;;
63110;SDS011;49201;53.426;10.300;2023-02-15T04:47:26;106.30;;;39.40;;
63110;SDS011;49201;53.426;10.300;2023-02-15T04:49:51;102.73;;;37.77;;
63110;SDS011;49201;53.426;10.300;2023-02-15T04:52:17;153.27;;;38.67;;
63110;SDS011;49201;53.426;10.300;2023-02-15T04:54:43;120.20;;;37.47;;
63110;SDS011;49201;53.426;10.300;2023-02-15T04:57:09;150.00;;;39.43;;
63110;SDS011;49201;53.426;10.300;2023-02-15T04:59:34;131.00;;;38.57;;
63110;SDS011;49201;53.426;10.300;2023-02-15T05:02:00;104.57;;;38.27;;
63110;SDS011;49201;53.426;10.300;2023-02-15T05:04:25;91.30;;;36.23;;
63110;SDS011;49201;53.426;10.300;2023-02-15T05:06:51;147.70;;;40.27;;
63110;SDS011;49201;53.426;10.300;2023-02-15T05:09:16;108.20;;;37.43;;
63110;SDS011;49201;53.426;10.300;2023-02-15T05:11:41;101.07;;;37.33;;
63110;SDS011;49201;53.426;10.300;2023-02-15T05:14:07;102.70;;;37.33;;
63110;SDS011;49201;53.426;10.300;2023-02-15T05:16:32;113.33;;;37.00;;
63110;SDS011;49201;53.426;10.300;2023-02-15T05:18:58;99.10;;;38.53;;
63110;SDS011;49201;53.426;10.300;2023-02-15T05:21:24;145.30;;;39.87;;
63110;SDS011;49201;53.426;10.300;2023-02-15T05:23:49;170.63;;;42.03;;
63110;SDS011;49201;53.426;10.300;2023-02-15T05:26:19;126.90;;;38.50;;
63110;SDS011;49201;53.426;10.300;2023-02-15T05:29:05;132.00;;;37.70;;
63110;SDS011;49201;53.426;10.300;2023-02-15T05:31:31;144.73;;;41.07;;
63110;SDS011;49201;53.426;10.300;2023-02-15T05:33:57;99.30;;;39.10;;
63110;SDS011;49201;53.426;10.300;2023-02-15T05:36:23;136.53;;;39.80;;
63110;SDS011;49201;53.426;10.300;2023-02-15T05:38:48;171.53;;;41.57;;
63110;SDS011;49201;53.426;10.300;2023-02-15T05:41:14;134.70;;;41.53;;
63110;SDS011;49201;53.426;10.300;2023-02-15T05:43:39;130.27;;;39.03;;
63110;SDS011;49201;53.426;10.300;2023-02-15T05:46:05;159.33;;;41.57;;
63110;SDS011;49201;53.426;10.300;2023-02-15T05:48:31;176.80;;;41.27;;
63110;SDS011;49201;53.426;10.300;2023-02-15T05:53:30;158.60;;;39.27;;
63110;SDS011;49201;53.426;10.300;2023-02-15T05:55:57;137.33;;;41.50;;
63110;SDS011;49201;53.426;10.300;2023-02-15T05:58:28;141.87;;;39.07;;
63110;SDS011;49201;53.426;10.300;2023-02-15T06:00:55;162.30;;;41.27;;
63110;SDS011;49201;53.426;10.300;2023-02-15T06:03:21;161.33;;;40.73;;
63110;SDS011;49201;53.426;10.300;2023-02-15T06:05:47;154.43;;;41.57;;
63110;SDS011;49201;53.426;10.300;2023-02-15T06:08:12;175.73;;;41.83;;
63110;SDS011;49201;53.426;10.300;2023-02-15T06:10:37;143.37;;;41.17;;
63110;SDS011;49201;53.426;10.300;2023-02-15T06:13:05;162.03;;;39.17;;
63110;SDS011;49201;53.426;10.300;2023-02-15T06:15:30;117.17;;;38.77;;
63110;SDS011;49201;53.426;10.300;2023-02-15T06:17:56;183.10;;;40.90;;
63110;SDS011;49201;53.426;10.300;2023-02-15T06:20:21;146.97;;;42.13;;
63110;SDS011;49201;53.426;10.300;2023-02-15T06:22:47;148.77;;;38.73;;
63110;SDS011;49201;53.426;10.300;2023-02-15T06:25:12;181.67;;;40.67;;
63110;SDS011;49201;53.426;10.300;2023-02-15T06:27:40;117.33;;;38.53;;
63110;SDS011;49201;53.426;10.300;2023-02-15T06:30:07;157.83;;;42.50;;
63110;SDS011;49201;53.426;10.300;2023-02-15T06:32:34;155.70;;;40.53;;
63110;SDS011;49201;53.426;10.300;2023-02-15T06:34:59;138.37;;;38.53;;
63110;SDS011;49201;53.426;10.300;2023-02-15T06:37:25;176.47;;;41.77;;
63110;SDS011;49201;53.426;10.300;2023-02-15T06:39:50;166.13;;;41.33;;
63110;SDS011;49201;53.426;10.300;2023-02-15T06:42:16;144.07;;;41.07;;
63110;SDS011;49201;53.426;10.300;2023-02-15T06:44:43;138.43;;;39.77;;
63110;SDS011;49201;53.426;10.300;2023-02-15T06:47:09;174.43;;;42.60;;
63110;SDS011;49201;53.426;10.300;2023-02-15T06:49:35;124.17;;;40.43;;
63110;SDS011;49201;53.426;10.300;2023-02-15T06:52:01;157.10;;;42.57;;
63110;SDS011;49201;53.426;10.300;2023-02-15T06:54:26;148.70;;;41.23;;
63110;SDS011;49201;53.426;10.300;2023-02-15T06:56:52;141.57;;;40.30;;
63110;SDS011;49201;53.426;10.300;2023-02-15T06:59:17;157.50;;;42.43;;
63110;SDS011;49201;53.426;10.300;2023-02-15T07:01:43;124.40;;;41.43;;
63110;SDS011;49201;53.426;10.300;2023-02-15T07:04:09;186.37;;;47.07;;
63110;SDS011;49201;53.426;10.300;2023-02-15T07:06:34;169.97;;;45.77;;
63110;SDS011;49201;53.426;10.300;2023-02-15T07:09:00;154.63;;;41.33;;
63110;SDS011;49201;53.426;10.300;2023-02-15T07:11:25;167.93;;;43.20;;
63110;SDS011;49201;53.426;10.300;2023-02-15T07:14:09;212.67;;;43.67;;
63110;SDS011;49201;53.426;10.300;2023-02-15T07:16:35;172.93;;;44.07;;
63110;SDS011;49201;53.426;10.300;2023-02-15T07:19:00;127.57;;;39.70;;
63110;SDS011;49201;53.426;10.300;2023-02-15T07:21:26;114.13;;;40.13;;
63110;SDS011;49201;53.426;10.300;2023-02-15T07:23:55;166.77;;;40.50;;
63110;SDS011;49201;53.426;10.300;2023-02-15T07:26:21;150.33;;;42.13;;
63110;SDS011;49201;53.426;10.300;2023-02-15T07:28:46;161.27;;;42.70;;
63110;SDS011;49201;53.426;10.300;2023-02-15T07:31:12;151.27;;;39.63;;
63110;SDS011;49201;53.426;10.300;2023-02-15T07:33:37;154.73;;;40.40;;
63110;SDS011;49201;53.426;10.300;2023-02-15T07:36:03;148.53;;;42.47;;
63110;SDS011;49201;53.426;10.300;2023-02-15T07:38:30;131.13;;;39.70;;
63110;SDS011;49201;53.426;10.300;2023-02-15T07:40:58;121.00;;;38.87;;
63110;SDS011;49201;53.426;10.300;2023-02-15T07:43:24;136.23;;;39.50;;
63110;SDS011;49201;53.426;10.300;2023-02-15T07:45:50;148.47;;;39.43;;
63110;SDS011;49201;53.426;10.300;2023-02-15T07:48:16;140.57;;;39.50;;
63110;SDS011;49201;53.426;10.300;2023-02-15T07:50:41;124.33;;;37.80;;
63110;SDS011;49201;53.426;10.300;2023-02-15T07:53:06;163.10;;;39.90;;
63110;SDS011;49201;53.426;10.300;2023-02-15T07:55:32;167.87;;;41.80;;
63110;SDS011;49201;53.426;10.300;2023-02-15T07:57:57;159.07;;;38.90;;
63110;SDS011;49201;53.426;10.300;2023-02-15T08:00:23;140.93;;;40.47;;
63110;SDS011;49201;53.426;10.300;2023-02-15T08:02:50;145.23;;;39.37;;
63110;SDS011;49201;53.426;10.300;2023-02-15T08:05:35;162.77;;;40.60;;
63110;SDS011;49201;53.426;10.300;2023-02-15T08:08:00;137.00;;;39.70;;
63110;SDS011;49201;53.426;10.300;2023-02-15T08:10:26;142.67;;;39.00;;
63110;SDS011;49201;53.426;10.300;2023-02-15T08:13:11;109.87;;;39.37;;
63110;SDS011;49201;53.426;10.300;2023-02-15T08:15:37;180.70;;;39.90;;
63110;SDS011;49201;53.426;10.300;2023-02-15T08:18:02;173.80;;;42.47;;
63110;SDS011;49201;53.426;10.300;2023-02-15T08:20:28;103.17;;;37.90;;
63110;SDS011;49201;53.426;10.300;2023-02-15T08:22:53;114.47;;;38.33;;
63110;SDS011;49201;53.426;10.300;2023-02-15T08:25:19;105.40;;;36.60;;
63110;SDS011;49201;53.426;10.300;2023-02-15T08:27:44;146.70;;;40.67;;
63110;SDS011;49201;53.426;10.300;2023-02-15T08:30:10;124.33;;;38.50;;
63110;SDS011;49201;53.426;10.300;2023-02-15T08:32:35;147.30;;;38.50;;
63110;SDS011;49201;53.426;10.300;2023-02-15T08:35:02;110.13;;;39.00;;
63110;SDS011;49201;53.426;10.300;2023-02-15T08:37:27;99.50;;;37.87;;
63110;SDS011;49201;53.426;10.300;2023-02-15T08:39:52;97.93;;;36.50;;
63110;SDS011;49201;53.426;10.300;2023-02-15T08:42:18;110.23;;;35.87;;
63110;SDS011;49201;53.426;10.300;2023-02-15T08:44:45;95.63;;;35.57;;
63110;SDS011;49201;53.426;10.300;2023-02-15T08:47:11;91.93;;;35.90;;
63110;SDS011;49201;53.426;10.300;2023-02-15T08:49:37;127.70;;;38.40;;
63110;SDS011;49201;53.426;10.300;2023-02-15T08:52:02;126.40;;;38.97;;
63110;SDS011;49201;53.426;10.300;2023-02-15T08:54:28;127.67;;;38.27;;
63110;SDS011;49201;53.426;10.300;2023-02-15T08:56:53;91.67;;;35.87;;
63110;SDS011;49201;53.426;10.300;2023-02-15T08:59:19;121.50;;;36.87;;
63110;SDS011;49201;53.426;10.300;2023-02-15T09:01:47;153.90;;;37.73;;
63110;SDS011;49201;53.426;10.300;2023-02-15T09:04:14;101.67;;;35.77;;
63110;SDS011;49201;53.426;10.300;2023-02-15T09:06:41;88.30;;;35.63;;
63110;SDS011;49201;53.426;10.300;2023-02-15T09:09:08;109.03;;;36.90;;
63110;SDS011;49201;53.426;10.300;2023-02-15T09:11:35;107.57;;;37.20;;
63110;SDS011;49201;53.426;10.300;2023-02-15T09:14:03;152.53;;;37.70;;
63110;SDS011;49201;53.426;10.300;2023-02-15T09:16:32;113.33;;;38.33;;
63110;SDS011;49201;53.426;10.300;2023-02-15T09:18:59;100.57;;;37.47;;
63110;SDS011;49201;53.426;10.300;2023-02-15T09:21:26;104.20;;;36.23;;
63110;SDS011;49201;53.426;10.300;2023-02-15T09:23:55;87.20;;;36.57;;
63110;SDS011;49201;53.426;10.300;2023-02-15T09:26:22;123.00;;;37.47;;
63110;SDS011;49201;53.426;10.300;2023-02-15T09:28:51;106.60;;;36.07;;
63110;SDS011;49201;53.426;10.300;2023-02-15T09:31:21;93.40;;;36.87;;
63110;SDS011;49201;53.426;10.300;2023-02-15T09:33:48;113.30;;;35.63;;
63110;SDS011;49201;53.426;10.300;2023-02-15T09:36:22;147.90;;;38.43;;
63110;SDS011;49201;53.426;10.300;2023-02-15T09:38:54;86.07;;;34.83;;
63110;SDS011;49201;53.426;10.300;2023-02-15T09:47:08;69.60;;;32.50;;
63110;SDS011;49201;53.426;10.300;2023-02-15T10:00:07;68.43;;;32.30;;
63110;SDS011;49201;53.426;10.300;2023-02-15T10:02:53;63.67;;;30.93;;
63110;SDS011;49201;53.426;10.300;2023-02-15T10:08:31;96.40;;;30.90;;
63110;SDS011;49201;53.426;10.300;2023-02-15T10:11:15;62.60;;;30.80;;
63110;SDS011;49201;53.426;10.300;2023-02-15T10:19:22;56.13;;;29.00;;
63110;SDS011;49201;53.426;10.300;2023-02-15T10:21:58;52.27;;;29.40;;
63110;SDS011;49201;53.426;10.300;2023-02-15T10:27:47;66.50;;;30.63;;
63110;SDS011;49201;53.426;10.300;2023-02-15T10:35:26;56.77;;;29.80;;
63110;SDS011;49201;53.426;10.300;2023-02-15T10:38:36;60.33;;;27.90;;
63110;SDS011;49201;53.426;10.300;2023-02-15T10:47:00;49.97;;;28.17;;
63110;SDS011;49201;53.426;10.300;2023-02-15T11:03:51;55.60;;;28.47;;
63110;SDS011;49201;53.426;10.300;2023-02-15T11:06:09;51.27;;;31.23;;
63110;SDS011;49201;53.426;10.300;2023-02-15T11:09:12;51.07;;;30.57;;
63110;SDS011;49201;53.426;10.300;2023-02-15T11:13:45;49.30;;;27.87;;
63110;SDS011;49201;53.426;10.300;2023-02-15T11:16:22;47.00;;;28.60;;
63110;SDS011;49201;53.426;10.300;2023-02-15T11:21:35;46.57;;;28.13;;
63110;SDS011;49201;53.426;10.300;2023-02-15T11:24:14;49.93;;;27.50;;
63110;SDS011;49201;53.426;10.300;2023-02-15T11:26:47;44.47;;;27.10;;
63110;SDS011;49201;53.426;10.300;2023-02-15T11:31:54;48.50;;;27.10;;
63110;SDS011;49201;53.426;10.300;2023-02-15T11:37:11;42.90;;;25.33;;
63110;SDS011;49201;53.426;10.300;2023-02-15T11:39:43;40.70;;;24.97;;
63110;SDS011;49201;53.426;10.300;2023-02-15T11:42:11;40.87;;;25.23;;
63110;SDS011;49201;53.426;10.300;2023-02-15T11:44:45;40.80;;;26.27;;
63110;SDS011;49201;53.426;10.300;2023-02-15T11:47:12;41.50;;;25.07;;
63110;SDS011;49201;53.426;10.300;2023-02-15T11:49:38;41.77;;;26.37;;
63110;SDS011;49201;53.426;10.300;2023-02-15T11:52:07;39.50;;;25.60;;
63110;SDS011;49201;53.426;10.300;2023-02-15T11:54:39;39.63;;;25.00;;
63110;SDS011;49201;53.426;10.300;2023-02-15T11:57:15;39.17;;;25.20;;
63110;SDS011;49201;53.426;10.300;2023-02-15T12:00:00;38.67;;;24.73;;
63110;SDS011;49201;53.426;10.300;2023-02-15T12:02:33;39.00;;;24.93;;
63110;SDS011;49201;53.426;10.300;2023-02-15T12:05:07;34.23;;;23.10;;
63110;SDS011;49201;53.426;10.300;2023-02-15T12:07:40;35.40;;;23.90;;
63110;SDS011;49201;53.426;10.300;2023-02-15T12:12:45;37.77;;;24.87;;
63110;SDS011;49201;53.426;10.300;2023-02-15T12:15:11;36.57;;;24.93;;
63110;SDS011;49201;53.426;10.300;2023-02-15T12:17:39;35.67;;;23.43;;
63110;SDS011;49201;53.426;10.300;2023-02-15T12:20:20;32.07;;;23.30;;
63110;SDS011;49201;53.426;10.300;2023-02-15T12:22:51;29.77;;;21.30;;
63110;SDS011;49201;53.426;10.300;2023-02-15T12:25:20;32.67;;;23.07;;
63110;SDS011;49201;53.426;10.300;2023-02-15T12:27:51;30.00;;;21.73;;
63110;SDS011;49201;53.426;10.300;2023-02-15T12:30:21;32.07;;;21.97;;
63110;SDS011;49201;53.426;10.300;2023-02-15T12:33:05;30.73;;;22.67;;
63110;SDS011;49201;53.426;10.300;2023-02-15T12:35:47;27.83;;;20.23;;
63110;SDS011;49201;53.426;10.300;2023-02-15T12:38:29;29.53;;;21.17;;
63110;SDS011;49201;53.426;10.300;2023-02-15T12:43:32;27.77;;;20.77;;
63110;SDS011;49201;53.426;10.300;2023-02-15T12:46:21;30.97;;;21.77;;
63110;SDS011;49201;53.426;10.300;2023-02-15T12:49:34;27.27;;;20.67;;
63110;SDS011;49201;53.426;10.300;2023-02-15T12:51:51;27.97;;;21.13;;
63110;SDS011;49201;53.426;10.300;2023-02-15T12:56:49;28.10;;;21.57;;
63110;SDS011;49201;53.426;10.300;2023-02-15T12:59:15;29.83;;;22.57;;
63110;SDS011;49201;53.426;10.300;2023-02-15T13:01:47;25.30;;;19.43;;
63110;SDS011;49201;53.426;10.300;2023-02-15T13:04:28;25.70;;;19.20;;
63110;SDS011;49201;53.426;10.300;2023-02-15T13:06:55;22.67;;;18.50;;
63110;SDS011;49201;53.426;10.300;2023-02-15T13:11:56;27.47;;;21.33;;
63110;SDS011;49201;53.426;10.300;2023-02-15T13:14:33;26.43;;;20.73;;
63110;SDS011;49201;53.426;10.300;2023-02-15T13:17:02;24.07;;;19.27;;
63110;SDS011;49201;53.426;10.300;2023-02-15T13:19:42;26.67;;;20.17;;
63110;SDS011;49201;53.426;10.300;2023-02-15T13:22:32;24.40;;;19.27;;
63110;SDS011;49201;53.426;10.300;2023-02-15T13:25:12;24.17;;;19.00;;
63110;SDS011;49201;53.426;10.300;2023-02-15T13:27:39;28.07;;;20.30;;
63110;SDS011;49201;53.426;10.300;2023-02-15T13:30:18;24.40;;;19.90;;
63110;SDS011;49201;53.426;10.300;2023-02-15T13:32:48;25.53;;;20.57;;
63110;SDS011;49201;53.426;10.300;2023-02-15T13:35:17;25.33;;;21.10;;
63110;SDS011;49201;53.426;10.300;2023-02-15T13:41:00;27.67;;;20.77;;
63110;SDS011;49201;53.426;10.300;2023-02-15T13:43:50;29.53;;;22.63;;
63110;SDS011;49201;53.426;10.300;2023-02-15T13:54:43;30.93;;;23.63;;
63110;SDS011;49201;53.426;10.300;2023-02-15T14:03:04;33.97;;;25.53;;
63110;SDS011;49201;53.426;10.300;2023-02-15T14:05:57;34.83;;;24.40;;
63110;SDS011;49201;53.426;10.300;2023-02-15T14:14:23;38.83;;;27.07;;
63110;SDS011;49201;53.426;10.300;2023-02-15T14:19:32;38.97;;;27.20;;
63110;SDS011;49201;53.426;10.300;2023-02-15T14:24:35;35.03;;;24.50;;
63110;SDS011;49201;53.426;10.300;2023-02-15T14:29:53;32.67;;;23.13;;
63110;SDS011;49201;53.426;10.300;2023-02-15T14:35:15;28.03;;;21.70;;
63110;SDS011;49201;53.426;10.300;2023-02-15T14:37:46;28.97;;;22.40;;
63110;SDS011;49201;53.426;10.300;2023-02-15T14:46:15;28.07;;;22.23;;
63110;SDS011;49201;53.426;10.300;2023-02-15T14:54:04;30.00;;;22.97;;
63110;SDS011;49201;53.426;10.300;2023-02-15T14:56:32;29.47;;;22.53;;
63110;SDS011;49201;53.426;10.300;2023-02-15T14:58:58;29.00;;;21.90;;
63110;SDS011;49201;53.426;10.300;2023-02-15T15:01:34;28.83;;;22.33;;
63110;SDS011;49201;53.426;10.300;2023-02-15T15:04:05;28.70;;;22.83;;
63110;SDS011;49201;53.426;10.300;2023-02-15T15:06:35;30.20;;;23.37;;
63110;SDS011;49201;53.426;10.300;2023-02-15T15:14:48;31.03;;;22.83;;
63110;SDS011;49201;53.426;10.300;2023-02-15T15:20:11;31.27;;;23.00;;
63110;SDS011;49201;53.426;10.300;2023-02-15T15:22:39;29.37;;;23.30;;
63110;SDS011;49201;53.426;10.300;2023-02-15T15:27:46;33.53;;;25.40;;
63110;SDS011;49201;53.426;10.300;2023-02-15T15:40:42;34.67;;;25.37;;
63110;SDS011;49201;53.426;10.300;2023-02-15T15:43:37;38.20;;;26.93;;
63110;SDS011;49201;53.426;10.300;2023-02-15T15:49:02;37.73;;;27.33;;
63110;SDS011;49201;53.426;10.300;2023-02-15T15:51:37;37.60;;;26.83;;
63110;SDS011;49201;53.426;10.300;2023-02-15T15:54:11;36.67;;;27.63;;
63110;SDS011;49201;53.426;10.300;2023-02-15T15:56:40;39.00;;;27.17;;
63110;SDS011;49201;53.426;10.300;2023-02-15T15:59:12;39.93;;;28.03;;
63110;SDS011;49201;53.426;10.300;2023-02-15T16:01:44;38.50;;;26.23;;
63110;SDS011;49201;53.426;10.300;2023-02-15T16:04:14;36.47;;;26.67;;
63110;SDS011;49201;53.426;10.300;2023-02-15T16:06:50;37.60;;;26.57;;
63110;SDS011;49201;53.426;10.300;2023-02-15T16:09:19;41.43;;;28.60;;
63110;SDS011;49201;53.426;10.300;2023-02-15T16:11:46;42.07;;;29.27;;
63110;SDS011;49201;53.426;10.300;2023-02-15T16:14:16;42.57;;;28.87;;
63110;SDS011;49201;53.426;10.300;2023-02-15T16:16:49;42.47;;;29.27;;
63110;SDS011;49201;53.426;10.300;2023-02-15T16:19:26;42.63;;;28.87;;
63110;SDS011;49201;53.426;10.300;2023-02-15T16:21:54;44.40;;;28.83;;
63110;SDS011;49201;53.426;10.300;2023-02-15T16:29:53;45.73;;;31.73;;
63110;SDS011;49201;53.426;10.300;2023-02-15T16:32:23;44.70;;;30.80;;
63110;SDS011;49201;53.426;10.300;2023-02-15T16:37:24;40.17;;;27.97;;
63110;SDS011;49201;53.426;10.300;2023-02-15T16:39:52;39.20;;;27.73;;
63110;SDS011;49201;53.426;10.300;2023-02-15T16:42:21;41.17;;;27.43;;
63110;SDS011;49201;53.426;10.300;2023-02-15T16:44:51;39.97;;;27.27;;
63110;SDS011;49201;53.426;10.300;2023-02-15T16:47:26;40.33;;;27.03;;
63110;SDS011;49201;53.426;10.300;2023-02-15T16:49:55;38.73;;;27.30;;
63110;SDS011;49201;53.426;10.300;2023-02-15T16:52:24;38.97;;;26.87;;
63110;SDS011;49201;53.426;10.300;2023-02-15T16:54:53;40.37;;;26.90;;
63110;SDS011;49201;53.426;10.300;2023-02-15T16:57:23;39.47;;;28.33;;
63110;SDS011;49201;53.426;10.300;2023-02-15T16:59:53;45.27;;;31.17;;
63110;SDS011;49201;53.426;10.300;2023-02-15T17:02:24;46.73;;;31.07;;
63110;SDS011;49201;53.426;10.300;2023-02-15T17:05:05;42.77;;;29.50;;
63110;SDS011;49201;53.426;10.300;2023-02-15T17:07:41;42.87;;;29.37;;
63110;SDS011;49201;53.426;10.300;2023-02-15T17:13:26;41.80;;;27.07;;
63110;SDS011;49201;53.426;10.300;2023-02-15T17:18:27;40.50;;;28.70;;
63110;SDS011;49201;53.426;10.300;2023-02-15T17:21:17;43.77;;;28.87;;
63110;SDS011;49201;53.426;10.300;2023-02-15T17:23:46;42.60;;;28.87;;
63110;SDS011;49201;53.426;10.300;2023-02-15T17:26:34;42.33;;;28.53;;
63110;SDS011;49201;53.426;10.300;2023-02-15T17:29:14;42.00;;;29.13;;
63110;SDS011;49201;53.426;10.300;2023-02-15T17:31:45;41.87;;;28.60;;